sensor_id;sensor_type;location;lat;lon;timestamp;P1;durP1;ratioP1;P2;durP2;ratioP2
55539;SDS011;41384;51.418;7.286;2022-08-20T00:00:25;14.43;;;7.15;;
55539;SDS011;41384;51.418;7.286;2022-08-20T00:02:53;8.05;;;4.90;;
55539;SDS011;41384;51.418;7.286;2022-08-20T00:05:26;7.60;;;4.97;;
55539;SDS011;41384;51.418;7.286;2022-08-20T00:07:58;8.93;;;4.80;;
55539;SDS011;41384;51.418;7.286;2022-08-20T00:10:25;13.95;;;4.45;;
55539;SDS011;41384;51.418;7.286;2022-08-20T00:12:52;4.75;;;2.28;;
55539;SDS011;41384;51.418;7.286;2022-08-20T00:15:20;4.57;;;1.88;;
55539;SDS011;41384;51.418;7.286;2022-08-20T00:17:48;4.32;;;1.60;;
55539;SDS011;41384;51.418;7.286;2022-08-20T00:20:15;4.25;;;1.17;;
55539;SDS011;41384;51.418;7.286;2022-08-20T00:22:41;3.10;;;1.20;;
55539;SDS011;41384;51.418;7.286;2022-08-20T00:25:07;3.17;;;1.38;;
55539;SDS011;41384;51.418;7.286;2022-08-20T00:27:34;6.15;;;2.08;;
55539;SDS011;41384;51.418;7.286;2022-08-20T00:30:00;2.97;;;0.85;;
55539;SDS011;41384;51.418;7.286;2022-08-20T00:32:25;2.08;;;0.68;;
55539;SDS011;41384;51.418;7.286;2022-08-20T00:34:51;1.42;;;0.68;;
55539;SDS011;41384;51.418;7.286;2022-08-20T00:37:16;1.52;;;0.73;;
55539;SDS011;41384;51.418;7.286;2022-08-20T00:39:41;2.70;;;0.93;;
55539;SDS011;41384;51.418;7.286;2022-08-20T00:42:07;1.58;;;0.85;;
55539;SDS011;41384;51.418;7.286;2022-08-20T00:44:33;2.38;;;1.10;;
55539;SDS011;41384;51.418;7.286;2022-08-20T00:46:58;1.55;;;1.02;;
55539;SDS011;41384;51.418;7.286;2022-08-20T00:49:28;1.75;;;1.05;;
55539;SDS011;41384;51.418;7.286;2022-08-20T00:52:08;2.47;;;1.55;;
55539;SDS011;41384;51.418;7.286;2022-08-20T00:54:40;4.85;;;1.60;;
55539;SDS011;41384;51.418;7.286;2022-08-20T00:59:49;2.45;;;1.70;;
55539;SDS011;41384;51.418;7.286;2022-08-20T01:02:16;2.10;;;1.55;;
55539;SDS011;41384;51.418;7.286;2022-08-20T01:04:42;6.03;;;3.58;;
55539;SDS011;41384;51.418;7.286;2022-08-20T01:07:25;8.18;;;4.88;;
55539;SDS011;41384;51.418;7.286;2022-08-20T01:10:04;9.57;;;6.65;;
55539;SDS011;41384;51.418;7.286;2022-08-20T01:12:42;9.25;;;6.97;;
55539;SDS011;41384;51.418;7.286;2022-08-20T01:15:11;10.90;;;7.03;;
55539;SDS011;41384;51.418;7.286;2022-08-20T01:17:41;11.07;;;7.55;;
55539;SDS011;41384;51.418;7.286;2022-08-20T01:20:12;12.07;;;8.07;;
55539;SDS011;41384;51.418;7.286;2022-08-20T01:22:44;13.15;;;8.57;;
55539;SDS011;41384;51.418;7.286;2022-08-20T01:28:15;15.50;;;9.43;;
55539;SDS011;41384;51.418;7.286;2022-08-20T01:30:43;14.07;;;9.88;;
55539;SDS011;41384;51.418;7.286;2022-08-20T01:33:09;15.95;;;10.63;;
55539;SDS011;41384;51.418;7.286;2022-08-20T01:35:38;18.67;;;11.68;;
55539;SDS011;41384;51.418;7.286;2022-08-20T01:38:05;17.77;;;11.02;;
55539;SDS011;41384;51.418;7.286;2022-08-20T01:41:18;17.08;;;11.65;;
55539;SDS011;41384;51.418;7.286;2022-08-20T01:43:36;21.90;;;11.95;;
55539;SDS011;41384;51.418;7.286;2022-08-20T01:46:02;17.83;;;11.65;;
55539;SDS011;41384;51.418;7.286;2022-08-20T01:48:28;21.20;;;12.40;;
55539;SDS011;41384;51.418;7.286;2022-08-20T01:50:56;19.27;;;11.20;;
55539;SDS011;41384;51.418;7.286;2022-08-20T01:53:30;18.40;;;11.80;;
55539;SDS011;41384;51.418;7.286;2022-08-20T01:55:58;17.70;;;11.50;;
55539;SDS011;41384;51.418;7.286;2022-08-20T01:58:25;16.50;;;11.27;;
55539;SDS011;41384;51.418;7.286;2022-08-20T02:00:53;18.60;;;11.57;;
55539;SDS011;41384;51.418;7.286;2022-08-20T02:03:19;18.48;;;12.18;;
55539;SDS011;41384;51.418;7.286;2022-08-20T02:05:44;18.73;;;12.05;;
55539;SDS011;41384;51.418;7.286;2022-08-20T02:08:09;18.40;;;11.75;;
55539;SDS011;41384;51.418;7.286;2022-08-20T02:10:34;18.48;;;11.02;;
55539;SDS011;41384;51.418;7.286;2022-08-20T02:13:00;18.35;;;12.10;;
55539;SDS011;41384;51.418;7.286;2022-08-20T02:15:26;20.10;;;11.98;;
55539;SDS011;41384;51.418;7.286;2022-08-20T02:17:52;17.73;;;11.98;;
55539;SDS011;41384;51.418;7.286;2022-08-20T02:20:19;18.85;;;12.32;;
55539;SDS011;41384;51.418;7.286;2022-08-20T02:22:55;19.70;;;11.68;;
55539;SDS011;41384;51.418;7.286;2022-08-20T02:25:23;19.40;;;12.52;;
55539;SDS011;41384;51.418;7.286;2022-08-20T02:27:52;18.17;;;12.38;;
55539;SDS011;41384;51.418;7.286;2022-08-20T02:30:23;22.48;;;12.20;;
55539;SDS011;41384;51.418;7.286;2022-08-20T02:32:51;21.15;;;12.57;;
55539;SDS011;41384;51.418;7.286;2022-08-20T02:35:17;27.63;;;13.25;;
55539;SDS011;41384;51.418;7.286;2022-08-20T02:37:43;19.15;;;12.23;;
55539;SDS011;41384;51.418;7.286;2022-08-20T02:40:11;17.15;;;12.25;;
55539;SDS011;41384;51.418;7.286;2022-08-20T02:42:39;19.00;;;12.32;;
55539;SDS011;41384;51.418;7.286;2022-08-20T02:45:06;18.45;;;12.38;;
55539;SDS011;41384;51.418;7.286;2022-08-20T02:47:32;19.08;;;12.48;;
55539;SDS011;41384;51.418;7.286;2022-08-20T02:49:58;17.50;;;12.10;;
55539;SDS011;41384;51.418;7.286;2022-08-20T02:52:23;16.42;;;12.25;;
55539;SDS011;41384;51.418;7.286;2022-08-20T02:54:49;20.45;;;12.02;;
55539;SDS011;41384;51.418;7.286;2022-08-20T02:57:15;19.63;;;12.70;;
55539;SDS011;41384;51.418;7.286;2022-08-20T02:59:44;19.83;;;12.55;;
55539;SDS011;41384;51.418;7.286;2022-08-20T03:02:10;22.10;;;12.77;;
55539;SDS011;41384;51.418;7.286;2022-08-20T03:04:36;19.65;;;12.00;;
55539;SDS011;41384;51.418;7.286;2022-08-20T03:07:02;19.80;;;12.45;;
55539;SDS011;41384;51.418;7.286;2022-08-20T03:09:29;18.48;;;12.02;;
55539;SDS011;41384;51.418;7.286;2022-08-20T03:11:54;22.85;;;13.10;;
55539;SDS011;41384;51.418;7.286;2022-08-20T03:14:20;21.38;;;12.95;;
55539;SDS011;41384;51.418;7.286;2022-08-20T03:16:45;19.30;;;12.35;;
55539;SDS011;41384;51.418;7.286;2022-08-20T03:19:10;20.05;;;12.57;;
55539;SDS011;41384;51.418;7.286;2022-08-20T03:21:37;20.88;;;13.00;;
55539;SDS011;41384;51.418;7.286;2022-08-20T03:24:03;21.77;;;12.82;;
55539;SDS011;41384;51.418;7.286;2022-08-20T03:26:28;20.23;;;12.85;;
55539;SDS011;41384;51.418;7.286;2022-08-20T03:28:53;21.95;;;13.52;;
55539;SDS011;41384;51.418;7.286;2022-08-20T03:31:19;23.17;;;14.10;;
55539;SDS011;41384;51.418;7.286;2022-08-20T03:33:45;22.73;;;13.60;;
55539;SDS011;41384;51.418;7.286;2022-08-20T03:36:10;20.27;;;13.60;;
55539;SDS011;41384;51.418;7.286;2022-08-20T03:38:35;22.80;;;13.65;;
55539;SDS011;41384;51.418;7.286;2022-08-20T03:41:01;21.98;;;13.52;;
55539;SDS011;41384;51.418;7.286;2022-08-20T03:43:27;20.92;;;13.38;;
55539;SDS011;41384;51.418;7.286;2022-08-20T03:45:53;22.20;;;12.93;;
55539;SDS011;41384;51.418;7.286;2022-08-20T03:48:19;20.95;;;14.15;;
55539;SDS011;41384;51.418;7.286;2022-08-20T03:50:46;21.23;;;13.55;;
55539;SDS011;41384;51.418;7.286;2022-08-20T03:53:13;23.13;;;13.77;;
55539;SDS011;41384;51.418;7.286;2022-08-20T03:55:39;21.58;;;13.88;;
55539;SDS011;41384;51.418;7.286;2022-08-20T03:58:06;19.75;;;12.85;;
55539;SDS011;41384;51.418;7.286;2022-08-20T04:00:34;24.10;;;13.85;;
55539;SDS011;41384;51.418;7.286;2022-08-20T04:03:02;22.98;;;13.65;;
55539;SDS011;41384;51.418;7.286;2022-08-20T04:05:29;24.50;;;14.05;;
55539;SDS011;41384;51.418;7.286;2022-08-20T04:07:58;23.35;;;14.77;;
55539;SDS011;41384;51.418;7.286;2022-08-20T04:10:25;23.58;;;13.60;;
55539;SDS011;41384;51.418;7.286;2022-08-20T04:12:51;25.63;;;15.13;;
55539;SDS011;41384;51.418;7.286;2022-08-20T04:15:16;20.77;;;12.65;;
55539;SDS011;41384;51.418;7.286;2022-08-20T04:17:43;25.13;;;13.88;;
55539;SDS011;41384;51.418;7.286;2022-08-20T04:20:12;23.63;;;13.77;;
55539;SDS011;41384;51.418;7.286;2022-08-20T04:22:42;21.70;;;13.13;;
55539;SDS011;41384;51.418;7.286;2022-08-20T04:25:08;21.63;;;13.75;;
55539;SDS011;41384;51.418;7.286;2022-08-20T04:27:36;21.30;;;13.05;;
55539;SDS011;41384;51.418;7.286;2022-08-20T04:30:04;23.13;;;14.00;;
55539;SDS011;41384;51.418;7.286;2022-08-20T04:32:32;21.58;;;13.32;;
55539;SDS011;41384;51.418;7.286;2022-08-20T04:34:58;21.40;;;13.55;;
55539;SDS011;41384;51.418;7.286;2022-08-20T04:37:24;21.48;;;12.77;;
55539;SDS011;41384;51.418;7.286;2022-08-20T04:39:49;20.65;;;11.98;;
55539;SDS011;41384;51.418;7.286;2022-08-20T04:42:34;18.30;;;12.00;;
55539;SDS011;41384;51.418;7.286;2022-08-20T04:45:02;19.95;;;11.90;;
55539;SDS011;41384;51.418;7.286;2022-08-20T04:47:30;19.13;;;11.75;;
55539;SDS011;41384;51.418;7.286;2022-08-20T04:49:56;20.98;;;12.75;;
55539;SDS011;41384;51.418;7.286;2022-08-20T04:52:24;20.38;;;12.30;;
55539;SDS011;41384;51.418;7.286;2022-08-20T04:54:49;22.02;;;12.57;;
55539;SDS011;41384;51.418;7.286;2022-08-20T04:57:15;22.40;;;12.93;;
55539;SDS011;41384;51.418;7.286;2022-08-20T04:59:40;22.60;;;13.20;;
55539;SDS011;41384;51.418;7.286;2022-08-20T05:02:05;22.90;;;13.38;;
55539;SDS011;41384;51.418;7.286;2022-08-20T05:04:30;22.05;;;12.65;;
55539;SDS011;41384;51.418;7.286;2022-08-20T05:06:56;22.50;;;13.48;;
55539;SDS011;41384;51.418;7.286;2022-08-20T05:09:21;21.88;;;13.13;;
55539;SDS011;41384;51.418;7.286;2022-08-20T05:11:46;22.52;;;13.05;;
55539;SDS011;41384;51.418;7.286;2022-08-20T05:14:12;23.52;;;13.10;;
55539;SDS011;41384;51.418;7.286;2022-08-20T05:16:39;22.45;;;12.93;;
55539;SDS011;41384;51.418;7.286;2022-08-20T05:19:05;23.23;;;12.85;;
55539;SDS011;41384;51.418;7.286;2022-08-20T05:21:32;21.98;;;12.65;;
55539;SDS011;41384;51.418;7.286;2022-08-20T05:23:58;25.83;;;13.73;;
55539;SDS011;41384;51.418;7.286;2022-08-20T05:26:23;22.60;;;13.13;;
55539;SDS011;41384;51.418;7.286;2022-08-20T05:28:50;23.08;;;13.90;;
55539;SDS011;41384;51.418;7.286;2022-08-20T05:31:16;21.77;;;13.48;;
55539;SDS011;41384;51.418;7.286;2022-08-20T05:33:42;22.88;;;13.90;;
55539;SDS011;41384;51.418;7.286;2022-08-20T05:36:07;22.13;;;12.77;;
55539;SDS011;41384;51.418;7.286;2022-08-20T05:38:33;22.08;;;12.38;;
55539;SDS011;41384;51.418;7.286;2022-08-20T05:40:59;24.15;;;13.35;;
55539;SDS011;41384;51.418;7.286;2022-08-20T05:43:25;23.77;;;12.48;;
55539;SDS011;41384;51.418;7.286;2022-08-20T05:45:50;21.88;;;12.82;;
55539;SDS011;41384;51.418;7.286;2022-08-20T05:48:17;23.52;;;13.10;;
55539;SDS011;41384;51.418;7.286;2022-08-20T05:50:45;24.65;;;13.63;;
55539;SDS011;41384;51.418;7.286;2022-08-20T05:53:13;21.83;;;12.27;;
55539;SDS011;41384;51.418;7.286;2022-08-20T05:55:40;21.17;;;12.55;;
55539;SDS011;41384;51.418;7.286;2022-08-20T05:58:06;25.13;;;13.07;;
55539;SDS011;41384;51.418;7.286;2022-08-20T06:00:37;20.77;;;12.10;;
55539;SDS011;41384;51.418;7.286;2022-08-20T06:03:03;23.73;;;12.35;;
55539;SDS011;41384;51.418;7.286;2022-08-20T06:05:47;22.00;;;13.40;;
55539;SDS011;41384;51.418;7.286;2022-08-20T06:08:12;23.50;;;13.18;;
55539;SDS011;41384;51.418;7.286;2022-08-20T06:10:38;22.23;;;13.15;;
55539;SDS011;41384;51.418;7.286;2022-08-20T06:13:04;22.60;;;13.02;;
55539;SDS011;41384;51.418;7.286;2022-08-20T06:15:31;24.15;;;13.20;;
55539;SDS011;41384;51.418;7.286;2022-08-20T06:17:57;20.30;;;12.70;;
55539;SDS011;41384;51.418;7.286;2022-08-20T06:20:23;22.55;;;13.20;;
55539;SDS011;41384;51.418;7.286;2022-08-20T06:22:48;20.80;;;12.25;;
55539;SDS011;41384;51.418;7.286;2022-08-20T06:25:14;25.10;;;13.25;;
55539;SDS011;41384;51.418;7.286;2022-08-20T06:27:40;19.42;;;11.98;;
55539;SDS011;41384;51.418;7.286;2022-08-20T06:30:08;19.73;;;12.00;;
55539;SDS011;41384;51.418;7.286;2022-08-20T06:32:35;19.25;;;11.18;;
55539;SDS011;41384;51.418;7.286;2022-08-20T06:35:01;18.30;;;11.43;;
55539;SDS011;41384;51.418;7.286;2022-08-20T06:37:30;19.20;;;11.05;;
55539;SDS011;41384;51.418;7.286;2022-08-20T06:39:59;15.95;;;10.68;;
55539;SDS011;41384;51.418;7.286;2022-08-20T06:42:26;18.15;;;10.63;;
55539;SDS011;41384;51.418;7.286;2022-08-20T06:44:52;17.58;;;11.00;;
55539;SDS011;41384;51.418;7.286;2022-08-20T06:47:18;17.95;;;11.13;;
55539;SDS011;41384;51.418;7.286;2022-08-20T06:49:44;17.98;;;11.52;;
55539;SDS011;41384;51.418;7.286;2022-08-20T06:52:11;17.90;;;10.55;;
55539;SDS011;41384;51.418;7.286;2022-08-20T06:54:36;17.60;;;11.48;;
55539;SDS011;41384;51.418;7.286;2022-08-20T06:57:02;19.80;;;12.20;;
55539;SDS011;41384;51.418;7.286;2022-08-20T06:59:28;18.08;;;11.32;;
55539;SDS011;41384;51.418;7.286;2022-08-20T07:01:53;19.95;;;11.02;;
55539;SDS011;41384;51.418;7.286;2022-08-20T07:04:21;16.17;;;10.55;;
55539;SDS011;41384;51.418;7.286;2022-08-20T07:06:50;16.98;;;10.48;;
55539;SDS011;41384;51.418;7.286;2022-08-20T07:09:19;17.58;;;10.60;;
55539;SDS011;41384;51.418;7.286;2022-08-20T07:11:46;15.27;;;9.85;;
55539;SDS011;41384;51.418;7.286;2022-08-20T07:14:17;17.20;;;10.88;;
55539;SDS011;41384;51.418;7.286;2022-08-20T07:16:44;15.43;;;10.30;;
55539;SDS011;41384;51.418;7.286;2022-08-20T07:19:11;16.45;;;10.60;;
55539;SDS011;41384;51.418;7.286;2022-08-20T07:21:37;12.43;;;8.98;;
55539;SDS011;41384;51.418;7.286;2022-08-20T07:24:03;13.48;;;8.50;;
55539;SDS011;41384;51.418;7.286;2022-08-20T07:26:29;15.23;;;9.20;;
55539;SDS011;41384;51.418;7.286;2022-08-20T07:28:54;11.80;;;7.95;;
55539;SDS011;41384;51.418;7.286;2022-08-20T07:31:20;11.05;;;7.97;;
55539;SDS011;41384;51.418;7.286;2022-08-20T07:34:04;13.07;;;9.02;;
55539;SDS011;41384;51.418;7.286;2022-08-20T07:36:30;14.13;;;8.80;;
55539;SDS011;41384;51.418;7.286;2022-08-20T07:38:56;14.30;;;9.15;;
55539;SDS011;41384;51.418;7.286;2022-08-20T07:41:21;13.65;;;8.73;;
55539;SDS011;41384;51.418;7.286;2022-08-20T07:43:46;11.57;;;8.40;;
55539;SDS011;41384;51.418;7.286;2022-08-20T07:46:13;12.40;;;8.38;;
55539;SDS011;41384;51.418;7.286;2022-08-20T07:48:40;14.90;;;9.05;;
55539;SDS011;41384;51.418;7.286;2022-08-20T07:51:10;14.30;;;8.40;;
55539;SDS011;41384;51.418;7.286;2022-08-20T07:53:38;12.32;;;8.32;;
55539;SDS011;41384;51.418;7.286;2022-08-20T07:56:06;14.05;;;8.88;;
55539;SDS011;41384;51.418;7.286;2022-08-20T07:58:34;13.75;;;8.55;;
55539;SDS011;41384;51.418;7.286;2022-08-20T08:01:01;13.13;;;9.00;;
55539;SDS011;41384;51.418;7.286;2022-08-20T08:03:26;12.15;;;8.70;;
55539;SDS011;41384;51.418;7.286;2022-08-20T08:05:53;11.73;;;8.00;;
55539;SDS011;41384;51.418;7.286;2022-08-20T08:08:22;11.52;;;8.32;;
55539;SDS011;41384;51.418;7.286;2022-08-20T08:10:51;10.75;;;7.55;;
55539;SDS011;41384;51.418;7.286;2022-08-20T08:13:23;10.75;;;7.72;;
55539;SDS011;41384;51.418;7.286;2022-08-20T08:15:51;11.15;;;8.02;;
55539;SDS011;41384;51.418;7.286;2022-08-20T08:18:23;13.15;;;8.23;;
55539;SDS011;41384;51.418;7.286;2022-08-20T08:20:52;10.30;;;7.53;;
55539;SDS011;41384;51.418;7.286;2022-08-20T08:23:19;11.57;;;7.53;;
55539;SDS011;41384;51.418;7.286;2022-08-20T08:25:46;9.00;;;6.68;;
55539;SDS011;41384;51.418;7.286;2022-08-20T08:28:12;10.07;;;7.38;;
55539;SDS011;41384;51.418;7.286;2022-08-20T08:30:39;10.50;;;7.70;;
55539;SDS011;41384;51.418;7.286;2022-08-20T08:33:21;10.02;;;7.65;;
55539;SDS011;41384;51.418;7.286;2022-08-20T08:35:56;12.57;;;7.70;;
55539;SDS011;41384;51.418;7.286;2022-08-20T08:38:23;10.35;;;7.15;;
55539;SDS011;41384;51.418;7.286;2022-08-20T08:40:49;11.05;;;7.30;;
55539;SDS011;41384;51.418;7.286;2022-08-20T08:43:18;9.85;;;7.50;;
55539;SDS011;41384;51.418;7.286;2022-08-20T08:45:46;10.90;;;7.50;;
55539;SDS011;41384;51.418;7.286;2022-08-20T08:48:29;11.20;;;7.70;;
55539;SDS011;41384;51.418;7.286;2022-08-20T08:50:57;12.87;;;8.40;;
55539;SDS011;41384;51.418;7.286;2022-08-20T08:53:25;16.30;;;10.25;;
55539;SDS011;41384;51.418;7.286;2022-08-20T08:55:55;19.07;;;12.17;;
55539;SDS011;41384;51.418;7.286;2022-08-20T08:58:21;20.63;;;13.13;;
55539;SDS011;41384;51.418;7.286;2022-08-20T09:00:47;21.15;;;13.52;;
55539;SDS011;41384;51.418;7.286;2022-08-20T09:03:22;20.23;;;12.80;;
55539;SDS011;41384;51.418;7.286;2022-08-20T09:05:52;20.38;;;13.13;;
55539;SDS011;41384;51.418;7.286;2022-08-20T09:08:23;22.02;;;13.85;;
55539;SDS011;41384;51.418;7.286;2022-08-20T09:10:53;24.52;;;15.70;;
55539;SDS011;41384;51.418;7.286;2022-08-20T09:13:19;28.67;;;15.88;;
55539;SDS011;41384;51.418;7.286;2022-08-20T09:15:44;25.20;;;15.70;;
55539;SDS011;41384;51.418;7.286;2022-08-20T09:18:10;28.83;;;17.30;;
55539;SDS011;41384;51.418;7.286;2022-08-20T09:20:35;30.50;;;20.92;;
55539;SDS011;41384;51.418;7.286;2022-08-20T09:23:03;33.88;;;21.33;;
55539;SDS011;41384;51.418;7.286;2022-08-20T09:25:29;34.72;;;22.77;;
55539;SDS011;41384;51.418;7.286;2022-08-20T09:27:54;36.58;;;23.70;;
55539;SDS011;41384;51.418;7.286;2022-08-20T09:30:20;38.95;;;25.30;;
55539;SDS011;41384;51.418;7.286;2022-08-20T09:32:45;40.53;;;24.70;;
55539;SDS011;41384;51.418;7.286;2022-08-20T09:35:11;44.75;;;27.98;;
55539;SDS011;41384;51.418;7.286;2022-08-20T09:37:37;45.78;;;28.65;;
55539;SDS011;41384;51.418;7.286;2022-08-20T09:40:04;44.05;;;28.83;;
55539;SDS011;41384;51.418;7.286;2022-08-20T09:42:32;44.60;;;27.60;;
55539;SDS011;41384;51.418;7.286;2022-08-20T09:44:59;40.88;;;25.48;;
55539;SDS011;41384;51.418;7.286;2022-08-20T09:47:25;41.55;;;25.17;;
55539;SDS011;41384;51.418;7.286;2022-08-20T09:49:51;39.88;;;25.67;;
55539;SDS011;41384;51.418;7.286;2022-08-20T09:52:19;40.08;;;24.13;;
55539;SDS011;41384;51.418;7.286;2022-08-20T09:54:48;41.22;;;23.88;;
55539;SDS011;41384;51.418;7.286;2022-08-20T09:57:15;40.15;;;24.60;;
55539;SDS011;41384;51.418;7.286;2022-08-20T09:59:41;36.65;;;23.73;;
55539;SDS011;41384;51.418;7.286;2022-08-20T10:02:08;45.35;;;24.73;;
55539;SDS011;41384;51.418;7.286;2022-08-20T10:04:33;39.50;;;24.27;;
55539;SDS011;41384;51.418;7.286;2022-08-20T10:06:58;41.38;;;25.40;;
55539;SDS011;41384;51.418;7.286;2022-08-20T10:09:24;41.53;;;25.38;;
55539;SDS011;41384;51.418;7.286;2022-08-20T10:11:49;73.55;;;28.02;;
55539;SDS011;41384;51.418;7.286;2022-08-20T10:14:15;46.67;;;25.38;;
55539;SDS011;41384;51.418;7.286;2022-08-20T10:16:40;44.75;;;25.52;;
55539;SDS011;41384;51.418;7.286;2022-08-20T10:19:05;43.80;;;24.90;;
55539;SDS011;41384;51.418;7.286;2022-08-20T10:21:31;38.30;;;23.67;;
55539;SDS011;41384;51.418;7.286;2022-08-20T10:23:57;35.03;;;22.77;;
55539;SDS011;41384;51.418;7.286;2022-08-20T10:26:23;34.95;;;22.48;;
55539;SDS011;41384;51.418;7.286;2022-08-20T10:28:48;38.42;;;23.65;;
55539;SDS011;41384;51.418;7.286;2022-08-20T10:31:13;32.80;;;22.40;;
55539;SDS011;41384;51.418;7.286;2022-08-20T10:33:39;37.88;;;22.95;;
55539;SDS011;41384;51.418;7.286;2022-08-20T10:36:07;34.00;;;21.42;;
55539;SDS011;41384;51.418;7.286;2022-08-20T10:38:36;33.58;;;21.27;;
55539;SDS011;41384;51.418;7.286;2022-08-20T10:41:02;32.90;;;20.80;;
55539;SDS011;41384;51.418;7.286;2022-08-20T10:43:27;31.67;;;19.73;;
55539;SDS011;41384;51.418;7.286;2022-08-20T10:45:52;33.63;;;20.00;;
55539;SDS011;41384;51.418;7.286;2022-08-20T10:48:18;29.17;;;18.35;;
55539;SDS011;41384;51.418;7.286;2022-08-20T10:50:43;33.30;;;20.38;;
55539;SDS011;41384;51.418;7.286;2022-08-20T10:53:09;31.45;;;19.02;;
55539;SDS011;41384;51.418;7.286;2022-08-20T10:55:34;32.25;;;19.65;;
55539;SDS011;41384;51.418;7.286;2022-08-20T10:57:59;31.27;;;18.45;;
55539;SDS011;41384;51.418;7.286;2022-08-20T11:00:25;27.40;;;18.00;;
55539;SDS011;41384;51.418;7.286;2022-08-20T11:02:50;26.15;;;16.50;;
55539;SDS011;41384;51.418;7.286;2022-08-20T11:05:16;25.50;;;16.13;;
55539;SDS011;41384;51.418;7.286;2022-08-20T11:07:41;24.27;;;16.20;;
55539;SDS011;41384;51.418;7.286;2022-08-20T11:10:08;23.08;;;15.90;;
55539;SDS011;41384;51.418;7.286;2022-08-20T11:12:34;24.00;;;15.32;;
55539;SDS011;41384;51.418;7.286;2022-08-20T11:15:00;23.95;;;15.98;;
55539;SDS011;41384;51.418;7.286;2022-08-20T11:17:27;24.40;;;14.85;;
55539;SDS011;41384;51.418;7.286;2022-08-20T11:19:55;20.85;;;14.27;;
55539;SDS011;41384;51.418;7.286;2022-08-20T11:22:22;21.38;;;13.88;;
55539;SDS011;41384;51.418;7.286;2022-08-20T11:24:48;22.63;;;13.85;;
55539;SDS011;41384;51.418;7.286;2022-08-20T11:27:15;23.63;;;14.32;;
55539;SDS011;41384;51.418;7.286;2022-08-20T11:29:45;19.33;;;12.93;;
55539;SDS011;41384;51.418;7.286;2022-08-20T11:32:11;19.02;;;12.45;;
55539;SDS011;41384;51.418;7.286;2022-08-20T11:34:36;17.52;;;12.02;;
55539;SDS011;41384;51.418;7.286;2022-08-20T11:37:02;19.98;;;12.40;;
55539;SDS011;41384;51.418;7.286;2022-08-20T11:39:27;22.10;;;14.93;;
55539;SDS011;41384;51.418;7.286;2022-08-20T11:41:52;19.42;;;13.25;;
55539;SDS011;41384;51.418;7.286;2022-08-20T11:44:18;21.90;;;13.73;;
55539;SDS011;41384;51.418;7.286;2022-08-20T11:46:43;17.20;;;12.68;;
55539;SDS011;41384;51.418;7.286;2022-08-20T11:49:08;18.38;;;13.30;;
55539;SDS011;41384;51.418;7.286;2022-08-20T11:51:34;17.50;;;12.23;;
55539;SDS011;41384;51.418;7.286;2022-08-20T11:54:01;18.75;;;12.15;;
55539;SDS011;41384;51.418;7.286;2022-08-20T11:56:27;17.48;;;12.18;;
55539;SDS011;41384;51.418;7.286;2022-08-20T11:58:52;20.05;;;12.95;;
55539;SDS011;41384;51.418;7.286;2022-08-20T12:01:18;18.13;;;13.43;;
55539;SDS011;41384;51.418;7.286;2022-08-20T12:03:43;18.25;;;11.98;;
55539;SDS011;41384;51.418;7.286;2022-08-20T12:06:08;17.08;;;12.15;;
55539;SDS011;41384;51.418;7.286;2022-08-20T12:08:33;17.83;;;12.68;;
55539;SDS011;41384;51.418;7.286;2022-08-20T12:10:59;17.08;;;11.45;;
55539;SDS011;41384;51.418;7.286;2022-08-20T12:13:27;17.17;;;11.43;;
55539;SDS011;41384;51.418;7.286;2022-08-20T12:15:53;15.63;;;10.43;;
55539;SDS011;41384;51.418;7.286;2022-08-20T12:18:19;16.17;;;11.50;;
55539;SDS011;41384;51.418;7.286;2022-08-20T12:20:45;17.52;;;12.52;;
55539;SDS011;41384;51.418;7.286;2022-08-20T12:23:10;18.13;;;10.95;;
55539;SDS011;41384;51.418;7.286;2022-08-20T12:25:35;16.85;;;10.73;;
55539;SDS011;41384;51.418;7.286;2022-08-20T12:28:01;21.55;;;10.85;;
55539;SDS011;41384;51.418;7.286;2022-08-20T12:30:28;16.08;;;10.57;;
55539;SDS011;41384;51.418;7.286;2022-08-20T12:32:54;13.15;;;10.75;;
55539;SDS011;41384;51.418;7.286;2022-08-20T12:35:20;12.70;;;10.07;;
55539;SDS011;41384;51.418;7.286;2022-08-20T12:37:45;13.75;;;9.20;;
55539;SDS011;41384;51.418;7.286;2022-08-20T12:40:13;15.65;;;9.23;;
55539;SDS011;41384;51.418;7.286;2022-08-20T12:42:40;15.77;;;9.52;;
55539;SDS011;41384;51.418;7.286;2022-08-20T12:45:06;14.25;;;9.13;;
55539;SDS011;41384;51.418;7.286;2022-08-20T12:47:33;12.80;;;8.63;;
55539;SDS011;41384;51.418;7.286;2022-08-20T12:50:02;16.23;;;9.75;;
55539;SDS011;41384;51.418;7.286;2022-08-20T12:52:30;12.93;;;7.93;;
55539;SDS011;41384;51.418;7.286;2022-08-20T12:54:56;14.63;;;8.80;;
55539;SDS011;41384;51.418;7.286;2022-08-20T12:57:31;12.48;;;8.70;;
55539;SDS011;41384;51.418;7.286;2022-08-20T13:00:06;10.10;;;7.65;;
55539;SDS011;41384;51.418;7.286;2022-08-20T13:02:35;8.35;;;7.38;;
55539;SDS011;41384;51.418;7.286;2022-08-20T13:05:02;9.63;;;7.03;;
55539;SDS011;41384;51.418;7.286;2022-08-20T13:07:28;9.10;;;7.75;;
55539;SDS011;41384;51.418;7.286;2022-08-20T13:09:54;8.25;;;6.50;;
55539;SDS011;41384;51.418;7.286;2022-08-20T13:12:19;9.40;;;7.13;;
55539;SDS011;41384;51.418;7.286;2022-08-20T13:14:45;10.18;;;7.07;;
55539;SDS011;41384;51.418;7.286;2022-08-20T13:17:10;8.85;;;6.72;;
55539;SDS011;41384;51.418;7.286;2022-08-20T13:19:36;9.68;;;6.43;;
55539;SDS011;41384;51.418;7.286;2022-08-20T13:22:02;9.40;;;6.53;;
55539;SDS011;41384;51.418;7.286;2022-08-20T13:24:29;11.93;;;7.55;;
55539;SDS011;41384;51.418;7.286;2022-08-20T13:27:02;11.82;;;7.68;;
55539;SDS011;41384;51.418;7.286;2022-08-20T13:29:28;10.82;;;6.70;;
55539;SDS011;41384;51.418;7.286;2022-08-20T13:31:53;8.65;;;6.95;;
55539;SDS011;41384;51.418;7.286;2022-08-20T13:34:19;11.82;;;6.90;;
55539;SDS011;41384;51.418;7.286;2022-08-20T13:36:44;9.32;;;6.63;;
55539;SDS011;41384;51.418;7.286;2022-08-20T13:39:09;10.82;;;7.43;;
55539;SDS011;41384;51.418;7.286;2022-08-20T13:41:34;9.65;;;6.68;;
55539;SDS011;41384;51.418;7.286;2022-08-20T13:44:00;9.90;;;6.93;;
55539;SDS011;41384;51.418;7.286;2022-08-20T13:46:25;11.93;;;7.10;;
55539;SDS011;41384;51.418;7.286;2022-08-20T13:48:50;10.32;;;6.38;;
55539;SDS011;41384;51.418;7.286;2022-08-20T13:51:16;10.85;;;7.30;;
55539;SDS011;41384;51.418;7.286;2022-08-20T13:53:41;8.70;;;7.03;;
55539;SDS011;41384;51.418;7.286;2022-08-20T13:56:06;9.50;;;6.55;;
55539;SDS011;41384;51.418;7.286;2022-08-20T13:58:32;9.75;;;6.15;;
55539;SDS011;41384;51.418;7.286;2022-08-20T14:00:57;10.23;;;6.10;;
55539;SDS011;41384;51.418;7.286;2022-08-20T14:03:22;7.78;;;6.38;;
55539;SDS011;41384;51.418;7.286;2022-08-20T14:05:47;9.85;;;6.07;;
55539;SDS011;41384;51.418;7.286;2022-08-20T14:08:17;9.98;;;6.50;;
55539;SDS011;41384;51.418;7.286;2022-08-20T14:10:45;7.15;;;5.18;;
55539;SDS011;41384;51.418;7.286;2022-08-20T14:13:14;8.57;;;5.97;;
55539;SDS011;41384;51.418;7.286;2022-08-20T14:15:40;7.65;;;5.15;;
55539;SDS011;41384;51.418;7.286;2022-08-20T14:18:05;7.53;;;4.90;;
55539;SDS011;41384;51.418;7.286;2022-08-20T14:20:31;7.90;;;5.43;;
55539;SDS011;41384;51.418;7.286;2022-08-20T14:22:57;6.10;;;5.15;;
55539;SDS011;41384;51.418;7.286;2022-08-20T14:25:24;9.77;;;7.13;;
55539;SDS011;41384;51.418;7.286;2022-08-20T14:27:50;8.48;;;5.70;;
55539;SDS011;41384;51.418;7.286;2022-08-20T14:30:18;9.60;;;7.00;;
55539;SDS011;41384;51.418;7.286;2022-08-20T14:32:45;11.88;;;7.55;;